sensor_id;sensor_type;location;lat;lon;timestamp;temperature;humidity
30206;DHT22;17010;51.306;3.150;2022-10-17T00:00:05;15.90;99.90
30206;DHT22;17010;51.306;3.150;2022-10-17T00:02:31;15.90;99.90
30206;DHT22;17010;51.306;3.150;2022-10-17T00:04:57;15.90;99.90
30206;DHT22;17010;51.306;3.150;2022-10-17T00:07:23;16.00;99.90
30206;DHT22;17010;51.306;3.150;2022-10-17T00:09:49;16.00;99.90
30206;DHT22;17010;51.306;3.150;2022-10-17T00:12:15;16.00;99.90
30206;DHT22;17010;51.306;3.150;2022-10-17T00:14:41;16.10;99.90
30206;DHT22;17010;51.306;3.150;2022-10-17T00:17:07;16.10;99.90
30206;DHT22;17010;51.306;3.150;2022-10-17T00:19:32;16.10;99.90
30206;DHT22;17010;51.306;3.150;2022-10-17T00:21:58;16.10;99.90
30206;DHT22;17010;51.306;3.150;2022-10-17T00:24:24;16.10;99.90
30206;DHT22;17010;51.306;3.150;2022-10-17T00:26:50;16.10;99.90
30206;DHT22;17010;51.306;3.150;2022-10-17T00:29:16;16.10;99.90
30206;DHT22;17010;51.306;3.150;2022-10-17T00:31:42;16.10;99.90
30206;DHT22;17010;51.306;3.150;2022-10-17T00:34:08;16.00;99.90
30206;DHT22;17010;51.306;3.150;2022-10-17T00:36:34;16.00;99.90
30206;DHT22;17010;51.306;3.150;2022-10-17T00:39:00;16.10;99.90
30206;DHT22;17010;51.306;3.150;2022-10-17T00:41:28;16.10;99.90
30206;DHT22;17010;51.306;3.150;2022-10-17T00:44:02;16.20;99.90
30206;DHT22;17010;51.306;3.150;2022-10-17T00:46:29;16.10;99.90
30206;DHT22;17010;51.306;3.150;2022-10-17T00:48:56;16.10;99.90
30206;DHT22;17010;51.306;3.150;2022-10-17T00:51:31;16.20;99.90
30206;DHT22;17010;51.306;3.150;2022-10-17T00:53:58;16.20;99.90
30206;DHT22;17010;51.306;3.150;2022-10-17T00:56:25;16.20;99.90
30206;DHT22;17010;51.306;3.150;2022-10-17T00:58:51;16.20;99.90
30206;DHT22;17010;51.306;3.150;2022-10-17T01:01:17;16.20;99.90
30206;DHT22;17010;51.306;3.150;2022-10-17T01:03:43;16.20;99.90
30206;DHT22;17010;51.306;3.150;2022-10-17T01:06:09;16.20;99.90
30206;DHT22;17010;51.306;3.150;2022-10-17T01:08:35;16.30;99.90
30206;DHT22;17010;51.306;3.150;2022-10-17T01:11:09;16.30;99.90
30206;DHT22;17010;51.306;3.150;2022-10-17T01:13:40;16.30;99.90
30206;DHT22;17010;51.306;3.150;2022-10-17T01:21:06;16.30;99.90
30206;DHT22;17010;51.306;3.150;2022-10-17T01:31:22;16.40;99.90
30206;DHT22;17010;51.306;3.150;2022-10-17T01:36:29;16.50;99.90
30206;DHT22;17010;51.306;3.150;2022-10-17T01:38:59;16.50;99.90
30206;DHT22;17010;51.306;3.150;2022-10-17T01:44:02;16.50;99.90
30206;DHT22;17010;51.306;3.150;2022-10-17T01:48:56;16.60;99.90
30206;DHT22;17010;51.306;3.150;2022-10-17T01:51:25;16.50;99.90
30206;DHT22;17010;51.306;3.150;2022-10-17T01:54:10;16.50;99.90
30206;DHT22;17010;51.306;3.150;2022-10-17T01:56:38;16.50;99.90
30206;DHT22;17010;51.306;3.150;2022-10-17T01:59:10;16.50;99.90
30206;DHT22;17010;51.306;3.150;2022-10-17T02:01:37;16.60;99.90
30206;DHT22;17010;51.306;3.150;2022-10-17T02:04:04;16.60;99.90
30206;DHT22;17010;51.306;3.150;2022-10-17T02:06:35;16.60;99.90
30206;DHT22;17010;51.306;3.150;2022-10-17T02:09:01;16.70;99.90
30206;DHT22;17010;51.306;3.150;2022-10-17T02:11:27;16.70;99.90
30206;DHT22;17010;51.306;3.150;2022-10-17T02:13:57;16.80;99.90
30206;DHT22;17010;51.306;3.150;2022-10-17T02:16:37;16.70;99.90
30206;DHT22;17010;51.306;3.150;2022-10-17T02:21:44;16.80;99.90
30206;DHT22;17010;51.306;3.150;2022-10-17T02:29:21;16.80;99.90
30206;DHT22;17010;51.306;3.150;2022-10-17T02:31:53;16.70;99.90
30206;DHT22;17010;51.306;3.150;2022-10-17T02:34:39;16.80;99.90
30206;DHT22;17010;51.306;3.150;2022-10-17T02:37:08;16.70;99.90
30206;DHT22;17010;51.306;3.150;2022-10-17T02:39:35;16.70;99.90
30206;DHT22;17010;51.306;3.150;2022-10-17T02:42:02;16.70;99.90
30206;DHT22;17010;51.306;3.150;2022-10-17T02:44:30;16.70;99.90
30206;DHT22;17010;51.306;3.150;2022-10-17T02:47:02;16.70;99.90
30206;DHT22;17010;51.306;3.150;2022-10-17T02:49:30;16.70;99.90
30206;DHT22;17010;51.306;3.150;2022-10-17T02:52:10;16.70;99.90
30206;DHT22;17010;51.306;3.150;2022-10-17T02:54:42;16.70;99.90
30206;DHT22;17010;51.306;3.150;2022-10-17T02:57:17;16.70;99.90
30206;DHT22;17010;51.306;3.150;2022-10-17T02:59:45;16.70;99.90
30206;DHT22;17010;51.306;3.150;2022-10-17T03:02:11;16.70;99.90
30206;DHT22;17010;51.306;3.150;2022-10-17T03:04:38;16.70;99.90
30206;DHT22;17010;51.306;3.150;2022-10-17T03:07:07;16.70;99.90
30206;DHT22;17010;51.306;3.150;2022-10-17T03:09:32;16.80;99.90
30206;DHT22;17010;51.306;3.150;2022-10-17T03:11:58;16.80;99.90
30206;DHT22;17010;51.306;3.150;2022-10-17T03:14:24;16.70;99.90
30206;DHT22;17010;51.306;3.150;2022-10-17T03:16:51;16.80;99.90
30206;DHT22;17010;51.306;3.150;2022-10-17T03:19:16;16.80;99.90
30206;DHT22;17010;51.306;3.150;2022-10-17T03:21:42;16.80;99.90
30206;DHT22;17010;51.306;3.150;2022-10-17T03:24:08;16.80;99.90
30206;DHT22;17010;51.306;3.150;2022-10-17T03:26:34;16.90;99.90
30206;DHT22;17010;51.306;3.150;2022-10-17T03:29:00;16.90;99.90
30206;DHT22;17010;51.306;3.150;2022-10-17T03:31:26;16.90;99.90
30206;DHT22;17010;51.306;3.150;2022-10-17T03:33:52;16.90;99.90
30206;DHT22;17010;51.306;3.150;2022-10-17T03:36:18;17.00;99.90
30206;DHT22;17010;51.306;3.150;2022-10-17T03:38:44;16.90;99.90
30206;DHT22;17010;51.306;3.150;2022-10-17T03:41:11;16.90;99.90
30206;DHT22;17010;51.306;3.150;2022-10-17T03:43:37;16.90;99.90
30206;DHT22;17010;51.306;3.150;2022-10-17T03:46:04;16.90;99.90
30206;DHT22;17010;51.306;3.150;2022-10-17T03:48:30;16.90;99.90
30206;DHT22;17010;51.306;3.150;2022-10-17T03:50:57;16.90;99.90
30206;DHT22;17010;51.306;3.150;2022-10-17T03:53:23;16.90;99.90
30206;DHT22;17010;51.306;3.150;2022-10-17T03:55:49;16.80;99.90
30206;DHT22;17010;51.306;3.150;2022-10-17T03:58:15;16.80;99.90
30206;DHT22;17010;51.306;3.150;2022-10-17T04:00:41;16.90;99.90
30206;DHT22;17010;51.306;3.150;2022-10-17T04:03:07;16.90;99.90
30206;DHT22;17010;51.306;3.150;2022-10-17T04:05:33;16.90;99.90
30206;DHT22;17010;51.306;3.150;2022-10-17T04:07:59;16.90;99.90
30206;DHT22;17010;51.306;3.150;2022-10-17T04:10:25;16.90;99.90
30206;DHT22;17010;51.306;3.150;2022-10-17T04:12:51;17.00;99.90
30206;DHT22;17010;51.306;3.150;2022-10-17T04:15:17;17.00;99.90
30206;DHT22;17010;51.306;3.150;2022-10-17T04:17:43;17.00;99.90
30206;DHT22;17010;51.306;3.150;2022-10-17T04:20:09;17.00;99.90
30206;DHT22;17010;51.306;3.150;2022-10-17T04:22:35;17.10;99.90
30206;DHT22;17010;51.306;3.150;2022-10-17T04:25:01;17.10;99.90
30206;DHT22;17010;51.306;3.150;2022-10-17T04:27:27;17.10;99.90
30206;DHT22;17010;51.306;3.150;2022-10-17T04:29:53;17.10;99.90
30206;DHT22;17010;51.306;3.150;2022-10-17T04:32:19;17.10;99.90
30206;DHT22;17010;51.306;3.150;2022-10-17T04:34:47;17.20;99.90
30206;DHT22;17010;51.306;3.150;2022-10-17T04:37:13;17.20;99.90
30206;DHT22;17010;51.306;3.150;2022-10-17T04:39:39;17.20;99.90
30206;DHT22;17010;51.306;3.150;2022-10-17T04:42:05;17.20;99.90
30206;DHT22;17010;51.306;3.150;2022-10-17T04:44:31;17.20;99.90
30206;DHT22;17010;51.306;3.150;2022-10-17T04:46:58;17.20;99.90
30206;DHT22;17010;51.306;3.150;2022-10-17T04:49:24;17.20;99.90
30206;DHT22;17010;51.306;3.150;2022-10-17T04:51:50;17.30;99.90
30206;DHT22;17010;51.306;3.150;2022-10-17T04:54:16;17.20;99.90
30206;DHT22;17010;51.306;3.150;2022-10-17T04:56:42;17.20;99.90
30206;DHT22;17010;51.306;3.150;2022-10-17T04:59:08;17.30;99.90
30206;DHT22;17010;51.306;3.150;2022-10-17T05:01:34;17.20;99.90
30206;DHT22;17010;51.306;3.150;2022-10-17T05:04:00;17.20;99.90
30206;DHT22;17010;51.306;3.150;2022-10-17T05:06:26;17.20;99.90
30206;DHT22;17010;51.306;3.150;2022-10-17T05:08:54;17.20;99.90
30206;DHT22;17010;51.306;3.150;2022-10-17T05:11:23;17.20;99.90
30206;DHT22;17010;51.306;3.150;2022-10-17T05:13:50;17.20;99.90
30206;DHT22;17010;51.306;3.150;2022-10-17T05:16:16;17.20;99.90
30206;DHT22;17010;51.306;3.150;2022-10-17T05:18:42;17.30;99.90
30206;DHT22;17010;51.306;3.150;2022-10-17T05:21:08;17.20;99.90
30206;DHT22;17010;51.306;3.150;2022-10-17T05:23:34;17.20;99.90
30206;DHT22;17010;51.306;3.150;2022-10-17T05:26:00;17.20;99.90
30206;DHT22;17010;51.306;3.150;2022-10-17T05:28:26;17.20;99.90
30206;DHT22;17010;51.306;3.150;2022-10-17T05:30:52;17.20;99.90
30206;DHT22;17010;51.306;3.150;2022-10-17T05:33:29;17.20;99.90
30206;DHT22;17010;51.306;3.150;2022-10-17T05:35:58;17.20;99.90
30206;DHT22;17010;51.306;3.150;2022-10-17T05:38:24;17.20;99.90
30206;DHT22;17010;51.306;3.150;2022-10-17T05:40:51;17.20;99.90
30206;DHT22;17010;51.306;3.150;2022-10-17T05:43:17;17.20;99.90
30206;DHT22;17010;51.306;3.150;2022-10-17T05:45:43;17.20;99.90
30206;DHT22;17010;51.306;3.150;2022-10-17T05:48:10;17.20;99.90
30206;DHT22;17010;51.306;3.150;2022-10-17T05:50:36;17.20;99.90
30206;DHT22;17010;51.306;3.150;2022-10-17T05:53:02;17.20;99.90
30206;DHT22;17010;51.306;3.150;2022-10-17T05:55:28;17.20;99.90
30206;DHT22;17010;51.306;3.150;2022-10-17T05:57:54;17.20;99.90
30206;DHT22;17010;51.306;3.150;2022-10-17T06:00:20;17.20;99.90
30206;DHT22;17010;51.306;3.150;2022-10-17T06:02:46;17.20;99.90
30206;DHT22;17010;51.306;3.150;2022-10-17T06:05:13;17.20;99.90
30206;DHT22;17010;51.306;3.150;2022-10-17T06:07:39;17.20;99.90
30206;DHT22;17010;51.306;3.150;2022-10-17T06:10:05;17.20;99.90
30206;DHT22;17010;51.306;3.150;2022-10-17T06:12:31;17.20;99.90
30206;DHT22;17010;51.306;3.150;2022-10-17T06:14:57;17.20;99.90
30206;DHT22;17010;51.306;3.150;2022-10-17T06:17:23;17.20;99.90
30206;DHT22;17010;51.306;3.150;2022-10-17T06:19:49;17.10;99.90
30206;DHT22;17010;51.306;3.150;2022-10-17T06:22:15;17.10;99.90
30206;DHT22;17010;51.306;3.150;2022-10-17T06:24:41;17.00;99.90
30206;DHT22;17010;51.306;3.150;2022-10-17T06:27:07;17.00;99.90
30206;DHT22;17010;51.306;3.150;2022-10-17T06:29:33;17.00;99.90
30206;DHT22;17010;51.306;3.150;2022-10-17T06:31:59;17.00;99.90
30206;DHT22;17010;51.306;3.150;2022-10-17T06:34:25;17.00;99.90
30206;DHT22;17010;51.306;3.150;2022-10-17T06:36:51;17.00;99.90
30206;DHT22;17010;51.306;3.150;2022-10-17T06:39:17;16.90;99.90
30206;DHT22;17010;51.306;3.150;2022-10-17T06:41:44;16.90;99.90
30206;DHT22;17010;51.306;3.150;2022-10-17T06:44:10;16.80;99.90
30206;DHT22;17010;51.306;3.150;2022-10-17T06:46:37;16.80;99.90
30206;DHT22;17010;51.306;3.150;2022-10-17T06:49:05;16.80;99.90
30206;DHT22;17010;51.306;3.150;2022-10-17T06:51:33;16.80;99.90
30206;DHT22;17010;51.306;3.150;2022-10-17T06:53:59;16.80;99.90
30206;DHT22;17010;51.306;3.150;2022-10-17T06:56:25;16.80;99.90
30206;DHT22;17010;51.306;3.150;2022-10-17T06:58:51;16.80;99.90
30206;DHT22;17010;51.306;3.150;2022-10-17T07:01:18;16.80;99.90
30206;DHT22;17010;51.306;3.150;2022-10-17T07:03:46;16.80;99.90
30206;DHT22;17010;51.306;3.150;2022-10-17T07:06:13;16.80;99.90
30206;DHT22;17010;51.306;3.150;2022-10-17T07:08:42;16.80;99.90
30206;DHT22;17010;51.306;3.150;2022-10-17T07:11:13;16.70;99.90
30206;DHT22;17010;51.306;3.150;2022-10-17T07:13:40;16.80;99.90
30206;DHT22;17010;51.306;3.150;2022-10-17T07:16:06;16.70;99.90
30206;DHT22;17010;51.306;3.150;2022-10-17T07:18:32;16.80;99.90
30206;DHT22;17010;51.306;3.150;2022-10-17T07:20:58;16.80;99.90
30206;DHT22;17010;51.306;3.150;2022-10-17T07:23:25;16.80;99.90
30206;DHT22;17010;51.306;3.150;2022-10-17T07:25:51;16.80;99.90
30206;DHT22;17010;51.306;3.150;2022-10-17T07:28:17;16.80;99.90
30206;DHT22;17010;51.306;3.150;2022-10-17T07:30:43;16.80;99.90
30206;DHT22;17010;51.306;3.150;2022-10-17T07:33:09;16.80;99.90
30206;DHT22;17010;51.306;3.150;2022-10-17T07:35:36;16.90;99.90
30206;DHT22;17010;51.306;3.150;2022-10-17T07:38:02;17.00;99.90
30206;DHT22;17010;51.306;3.150;2022-10-17T07:40:28;16.90;99.90
30206;DHT22;17010;51.306;3.150;2022-10-17T07:42:54;16.90;99.90
30206;DHT22;17010;51.306;3.150;2022-10-17T07:45:21;17.00;99.90
30206;DHT22;17010;51.306;3.150;2022-10-17T07:47:48;16.90;99.90
30206;DHT22;17010;51.306;3.150;2022-10-17T07:50:14;17.00;99.90
30206;DHT22;17010;51.306;3.150;2022-10-17T07:52:40;17.00;99.90
30206;DHT22;17010;51.306;3.150;2022-10-17T07:55:08;17.00;99.90
30206;DHT22;17010;51.306;3.150;2022-10-17T07:57:34;17.00;99.90
30206;DHT22;17010;51.306;3.150;2022-10-17T08:00:00;17.10;99.90
30206;DHT22;17010;51.306;3.150;2022-10-17T08:02:26;17.10;99.90
30206;DHT22;17010;51.306;3.150;2022-10-17T08:04:52;17.10;99.90
30206;DHT22;17010;51.306;3.150;2022-10-17T08:07:19;17.10;99.90
30206;DHT22;17010;51.306;3.150;2022-10-17T08:09:45;17.10;99.90
30206;DHT22;17010;51.306;3.150;2022-10-17T08:12:11;17.10;99.90
30206;DHT22;17010;51.306;3.150;2022-10-17T08:14:39;17.10;99.90
30206;DHT22;17010;51.306;3.150;2022-10-17T08:17:06;17.10;99.90
30206;DHT22;17010;51.306;3.150;2022-10-17T08:19:32;17.20;99.90
30206;DHT22;17010;51.306;3.150;2022-10-17T08:21:58;17.20;99.90
30206;DHT22;17010;51.306;3.150;2022-10-17T08:24:24;17.20;99.90
30206;DHT22;17010;51.306;3.150;2022-10-17T08:26:50;17.20;99.90
30206;DHT22;17010;51.306;3.150;2022-10-17T08:29:18;17.20;99.90
30206;DHT22;17010;51.306;3.150;2022-10-17T08:31:44;17.20;99.90
30206;DHT22;17010;51.306;3.150;2022-10-17T08:34:10;17.20;99.90
30206;DHT22;17010;51.306;3.150;2022-10-17T08:36:36;17.20;99.90
30206;DHT22;17010;51.306;3.150;2022-10-17T08:39:02;17.20;99.90
30206;DHT22;17010;51.306;3.150;2022-10-17T08:41:41;17.20;99.90
30206;DHT22;17010;51.306;3.150;2022-10-17T08:46:44;17.20;99.90
30206;DHT22;17010;51.306;3.150;2022-10-17T08:49:46;17.20;99.90
30206;DHT22;17010;51.306;3.150;2022-10-17T08:52:06;17.20;99.90
30206;DHT22;17010;51.306;3.150;2022-10-17T08:54:41;17.10;99.90
30206;DHT22;17010;51.306;3.150;2022-10-17T08:57:13;17.00;99.90
30206;DHT22;17010;51.306;3.150;2022-10-17T08:59:40;17.00;99.90
30206;DHT22;17010;51.306;3.150;2022-10-17T09:07:46;17.00;99.90
30206;DHT22;17010;51.306;3.150;2022-10-17T09:10:30;17.00;99.90
30206;DHT22;17010;51.306;3.150;2022-10-17T09:13:04;17.00;99.90
30206;DHT22;17010;51.306;3.150;2022-10-17T09:18:45;17.00;99.90
30206;DHT22;17010;51.306;3.150;2022-10-17T09:20:50;17.00;99.90
30206;DHT22;17010;51.306;3.150;2022-10-17T09:23:24;17.00;99.90
30206;DHT22;17010;51.306;3.150;2022-10-17T09:25:53;17.10;99.90
30206;DHT22;17010;51.306;3.150;2022-10-17T09:30:46;17.30;99.90
30206;DHT22;17010;51.306;3.150;2022-10-17T09:33:16;17.40;99.90
30206;DHT22;17010;51.306;3.150;2022-10-17T09:35:43;17.50;99.90
30206;DHT22;17010;51.306;3.150;2022-10-17T09:38:12;17.60;99.90
30206;DHT22;17010;51.306;3.150;2022-10-17T09:40:40;17.70;99.90
30206;DHT22;17010;51.306;3.150;2022-10-17T09:43:06;17.80;99.90
30206;DHT22;17010;51.306;3.150;2022-10-17T09:45:33;17.80;99.90
30206;DHT22;17010;51.306;3.150;2022-10-17T09:48:23;17.70;99.90
30206;DHT22;17010;51.306;3.150;2022-10-17T09:50:51;17.70;99.90
30206;DHT22;17010;51.306;3.150;2022-10-17T09:53:20;17.70;99.90
30206;DHT22;17010;51.306;3.150;2022-10-17T09:55:48;17.80;99.90
30206;DHT22;17010;51.306;3.150;2022-10-17T09:58:15;17.80;99.90
30206;DHT22;17010;51.306;3.150;2022-10-17T10:00:42;17.90;99.90
30206;DHT22;17010;51.306;3.150;2022-10-17T10:03:09;18.00;99.90
30206;DHT22;17010;51.306;3.150;2022-10-17T10:05:36;18.10;99.90
30206;DHT22;17010;51.306;3.150;2022-10-17T10:08:03;18.20;99.90
30206;DHT22;17010;51.306;3.150;2022-10-17T10:10:30;18.30;99.90
30206;DHT22;17010;51.306;3.150;2022-10-17T10:15:38;18.50;99.90
30206;DHT22;17010;51.306;3.150;2022-10-17T10:21:06;18.70;99.90
30206;DHT22;17010;51.306;3.150;2022-10-17T10:23:33;18.80;99.90
30206;DHT22;17010;51.306;3.150;2022-10-17T10:26:02;18.80;99.90
30206;DHT22;17010;51.306;3.150;2022-10-17T10:28:30;18.90;99.90
30206;DHT22;17010;51.306;3.150;2022-10-17T10:30:57;18.80;99.90
30206;DHT22;17010;51.306;3.150;2022-10-17T10:33:26;18.80;99.90
30206;DHT22;17010;51.306;3.150;2022-10-17T10:35:54;18.90;99.90
30206;DHT22;17010;51.306;3.150;2022-10-17T10:38:20;19.00;99.90
30206;DHT22;17010;51.306;3.150;2022-10-17T10:40:47;19.10;99.90
30206;DHT22;17010;51.306;3.150;2022-10-17T10:43:31;19.10;99.90
30206;DHT22;17010;51.306;3.150;2022-10-17T10:45:57;19.30;99.90
30206;DHT22;17010;51.306;3.150;2022-10-17T10:48:25;19.50;99.90
30206;DHT22;17010;51.306;3.150;2022-10-17T10:50:58;19.60;99.90
30206;DHT22;17010;51.306;3.150;2022-10-17T10:53:35;19.70;99.90
30206;DHT22;17010;51.306;3.150;2022-10-17T10:56:14;19.80;99.90
30206;DHT22;17010;51.306;3.150;2022-10-17T10:58:52;19.80;99.90
30206;DHT22;17010;51.306;3.150;2022-10-17T11:01:21;19.70;99.90
30206;DHT22;17010;51.306;3.150;2022-10-17T11:03:55;19.70;99.90
30206;DHT22;17010;51.306;3.150;2022-10-17T11:06:26;19.60;99.90
30206;DHT22;17010;51.306;3.150;2022-10-17T11:11:32;19.50;99.90
30206;DHT22;17010;51.306;3.150;2022-10-17T11:16:49;19.40;99.90
30206;DHT22;17010;51.306;3.150;2022-10-17T11:22:25;19.40;99.90
30206;DHT22;17010;51.306;3.150;2022-10-17T11:24:59;19.50;99.90
30206;DHT22;17010;51.306;3.150;2022-10-17T11:27:28;19.50;99.90
30206;DHT22;17010;51.306;3.150;2022-10-17T11:29:55;19.50;99.90
30206;DHT22;17010;51.306;3.150;2022-10-17T11:34:51;19.70;99.90
30206;DHT22;17010;51.306;3.150;2022-10-17T11:37:24;19.70;99.90
30206;DHT22;17010;51.306;3.150;2022-10-17T11:39:55;19.70;99.90
30206;DHT22;17010;51.306;3.150;2022-10-17T11:42:33;19.80;99.90
30206;DHT22;17010;51.306;3.150;2022-10-17T11:45:13;19.90;99.90
30206;DHT22;17010;51.306;3.150;2022-10-17T11:47:44;19.90;99.90
30206;DHT22;17010;51.306;3.150;2022-10-17T11:50:19;19.90;99.90
30206;DHT22;17010;51.306;3.150;2022-10-17T11:52:48;19.90;99.90
30206;DHT22;17010;51.306;3.150;2022-10-17T11:55:22;19.70;99.90
30206;DHT22;17010;51.306;3.150;2022-10-17T12:03:27;19.50;99.90
30206;DHT22;17010;51.306;3.150;2022-10-17T12:06:12;19.50;99.90
30206;DHT22;17010;51.306;3.150;2022-10-17T12:11:39;19.40;99.90
30206;DHT22;17010;51.306;3.150;2022-10-17T12:16:51;19.30;99.90
30206;DHT22;17010;51.306;3.150;2022-10-17T12:19:24;19.20;99.90
30206;DHT22;17010;51.306;3.150;2022-10-17T12:22:35;19.10;99.90
30206;DHT22;17010;51.306;3.150;2022-10-17T12:24:43;19.10;99.90
30206;DHT22;17010;51.306;3.150;2022-10-17T12:29:58;19.10;99.90
30206;DHT22;17010;51.306;3.150;2022-10-17T12:32:24;19.10;99.90
30206;DHT22;17010;51.306;3.150;2022-10-17T12:34:53;19.20;99.90
30206;DHT22;17010;51.306;3.150;2022-10-17T12:40:45;19.30;99.90
30206;DHT22;17010;51.306;3.150;2022-10-17T12:42:51;19.40;99.90
30206;DHT22;17010;51.306;3.150;2022-10-17T12:48:02;19.70;99.90
30206;DHT22;17010;51.306;3.150;2022-10-17T12:50:58;19.80;99.90
30206;DHT22;17010;51.306;3.150;2022-10-17T12:53:17;19.90;99.90
30206;DHT22;17010;51.306;3.150;2022-10-17T12:55:44;20.00;99.90
30206;DHT22;17010;51.306;3.150;2022-10-17T12:58:11;20.00;99.90
30206;DHT22;17010;51.306;3.150;2022-10-17T13:00:42;20.10;99.90
30206;DHT22;17010;51.306;3.150;2022-10-17T13:03:16;20.20;99.90
30206;DHT22;17010;51.306;3.150;2022-10-17T13:05:44;20.20;99.90
30206;DHT22;17010;51.306;3.150;2022-10-17T13:11:07;20.40;99.90
30206;DHT22;17010;51.306;3.150;2022-10-17T13:13:40;20.50;99.90
30206;DHT22;17010;51.306;3.150;2022-10-17T13:16:07;20.60;99.90
30206;DHT22;17010;51.306;3.150;2022-10-17T13:18:33;20.70;99.90
30206;DHT22;17010;51.306;3.150;2022-10-17T13:21:03;20.80;99.90
30206;DHT22;17010;51.306;3.150;2022-10-17T13:23:32;20.80;99.90
30206;DHT22;17010;51.306;3.150;2022-10-17T13:26:03;20.90;99.90
30206;DHT22;17010;51.306;3.150;2022-10-17T13:28:29;21.00;99.90
30206;DHT22;17010;51.306;3.150;2022-10-17T13:30:55;21.00;99.90
30206;DHT22;17010;51.306;3.150;2022-10-17T13:33:30;20.90;99.90
30206;DHT22;17010;51.306;3.150;2022-10-17T13:35:56;20.90;99.90
30206;DHT22;17010;51.306;3.150;2022-10-17T13:38:25;20.90;99.90
30206;DHT22;17010;51.306;3.150;2022-10-17T13:40:51;20.70;99.90
30206;DHT22;17010;51.306;3.150;2022-10-17T13:43:18;20.60;99.90
30206;DHT22;17010;51.306;3.150;2022-10-17T13:45:48;20.50;99.90
30206;DHT22;17010;51.306;3.150;2022-10-17T13:48:19;20.40;99.90
30206;DHT22;17010;51.306;3.150;2022-10-17T13:50:46;20.30;99.90
30206;DHT22;17010;51.306;3.150;2022-10-17T13:53:23;20.30;99.90
30206;DHT22;17010;51.306;3.150;2022-10-17T13:55:56;20.30;99.90
30206;DHT22;17010;51.306;3.150;2022-10-17T13:58:23;20.20;99.90
30206;DHT22;17010;51.306;3.150;2022-10-17T14:00:49;20.20;99.90
30206;DHT22;17010;51.306;3.150;2022-10-17T14:03:20;20.20;99.90
30206;DHT22;17010;51.306;3.150;2022-10-17T14:08:32;20.20;99.90
30206;DHT22;17010;51.306;3.150;2022-10-17T14:10:58;20.20;99.90
30206;DHT22;17010;51.306;3.150;2022-10-17T14:13:25;20.20;99.90
30206;DHT22;17010;51.306;3.150;2022-10-17T14:15:52;20.20;99.90
30206;DHT22;17010;51.306;3.150;2022-10-17T14:18:26;20.20;99.90
30206;DHT22;17010;51.306;3.150;2022-10-17T14:20:52;20.20;99.90
30206;DHT22;17010;51.306;3.150;2022-10-17T14:23:38;20.10;99.90
30206;DHT22;17010;51.306;3.150;2022-10-17T14:26:21;20.10;99.90
30206;DHT22;17010;51.306;3.150;2022-10-17T14:28:49;19.90;99.90
30206;DHT22;17010;51.306;3.150;2022-10-17T14:33:42;19.80;99.90
30206;DHT22;17010;51.306;3.150;2022-10-17T14:36:09;19.80;99.90
30206;DHT22;17010;51.306;3.150;2022-10-17T14:38:35;19.80;99.90
30206;DHT22;17010;51.306;3.150;2022-10-17T14:43:28;19.80;99.90
30206;DHT22;17010;51.306;3.150;2022-10-17T14:46:00;19.80;99.90
30206;DHT22;17010;51.306;3.150;2022-10-17T14:48:27;19.80;99.90
30206;DHT22;17010;51.306;3.150;2022-10-17T14:51:10;19.80;99.90
30206;DHT22;17010;51.306;3.150;2022-10-17T14:53:37;19.80;99.90
30206;DHT22;17010;51.306;3.150;2022-10-17T14:56:04;19.80;99.90
30206;DHT22;17010;51.306;3.150;2022-10-17T14:58:32;19.80;99.90
30206;DHT22;17010;51.306;3.150;2022-10-17T15:00:59;19.80;99.90
30206;DHT22;17010;51.306;3.150;2022-10-17T15:03:25;19.80;99.90
30206;DHT22;17010;51.306;3.150;2022-10-17T15:05:51;19.70;99.90
30206;DHT22;17010;51.306;3.150;2022-10-17T15:08:18;19.70;99.90
30206;DHT22;17010;51.306;3.150;2022-10-17T15:10:45;19.70;99.90
30206;DHT22;17010;51.306;3.150;2022-10-17T15:13:12;19.70;99.90
30206;DHT22;17010;51.306;3.150;2022-10-17T15:15:38;19.70;99.90
30206;DHT22;17010;51.306;3.150;2022-10-17T15:18:05;19.60;99.90
30206;DHT22;17010;51.306;3.150;2022-10-17T15:20:31;19.60;99.90
30206;DHT22;17010;51.306;3.150;2022-10-17T15:23:00;19.70;99.90
30206;DHT22;17010;51.306;3.150;2022-10-17T15:25:27;19.60;99.90
30206;DHT22;17010;51.306;3.150;2022-10-17T15:27:54;19.70;99.90
30206;DHT22;17010;51.306;3.150;2022-10-17T15:32:49;19.60;99.90
30206;DHT22;17010;51.306;3.150;2022-10-17T15:35:15;19.60;99.90
30206;DHT22;17010;51.306;3.150;2022-10-17T15:37:41;19.60;99.90
30206;DHT22;17010;51.306;3.150;2022-10-17T15:40:09;19.60;99.90
30206;DHT22;17010;51.306;3.150;2022-10-17T15:42:38;19.60;99.90
30206;DHT22;17010;51.306;3.150;2022-10-17T15:45:04;19.60;99.90
30206;DHT22;17010;51.306;3.150;2022-10-17T15:47:30;19.50;99.90
30206;DHT22;17010;51.306;3.150;2022-10-17T15:49:59;19.50;99.90
30206;DHT22;17010;51.306;3.150;2022-10-17T15:52:25;19.50;99.90
30206;DHT22;17010;51.306;3.150;2022-10-17T15:54:52;19.50;99.90
30206;DHT22;17010;51.306;3.150;2022-10-17T15:57:22;19.50;99.90
30206;DHT22;17010;51.306;3.150;2022-10-17T15:59:49;19.50;99.90
30206;DHT22;17010;51.306;3.150;2022-10-17T16:02:16;19.40;99.90
30206;DHT22;17010;51.306;3.150;2022-10-17T16:04:42;19.30;99.90
30206;DHT22;17010;51.306;3.150;2022-10-17T16:07:08;19.20;99.90
30206;DHT22;17010;51.306;3.150;2022-10-17T16:09:34;19.10;99.90
30206;DHT22;17010;51.306;3.150;2022-10-17T16:12:02;19.10;99.90
30206;DHT22;17010;51.306;3.150;2022-10-17T16:14:29;19.00;99.90
30206;DHT22;17010;51.306;3.150;2022-10-17T16:16:57;18.90;99.90
30206;DHT22;17010;51.306;3.150;2022-10-17T16:19:24;18.80;99.90
30206;DHT22;17010;51.306;3.150;2022-10-17T16:21:55;18.70;99.90
30206;DHT22;17010;51.306;3.150;2022-10-17T16:24:21;18.60;99.90
30206;DHT22;17010;51.306;3.150;2022-10-17T16:26:47;18.60;99.90
30206;DHT22;17010;51.306;3.150;2022-10-17T16:29:13;18.50;99.90
30206;DHT22;17010;51.306;3.150;2022-10-17T16:31:39;18.40;99.90
30206;DHT22;17010;51.306;3.150;2022-10-17T16:34:06;18.40;99.90
30206;DHT22;17010;51.306;3.150;2022-10-17T16:36:33;18.30;99.90
30206;DHT22;17010;51.306;3.150;2022-10-17T16:38:59;18.30;99.90
30206;DHT22;17010;51.306;3.150;2022-10-17T16:41:29;18.20;99.90
30206;DHT22;17010;51.306;3.150;2022-10-17T16:43:57;18.20;99.90
30206;DHT22;17010;51.306;3.150;2022-10-17T16:46:23;18.10;99.90
30206;DHT22;17010;51.306;3.150;2022-10-17T16:48:50;18.10;99.90
30206;DHT22;17010;51.306;3.150;2022-10-17T16:51:16;18.00;99.90
30206;DHT22;17010;51.306;3.150;2022-10-17T16:53:43;18.00;99.90
30206;DHT22;17010;51.306;3.150;2022-10-17T16:56:10;17.90;99.90
30206;DHT22;17010;51.306;3.150;2022-10-17T16:58:37;17.90;99.90
30206;DHT22;17010;51.306;3.150;2022-10-17T17:01:04;17.80;99.90
30206;DHT22;17010;51.306;3.150;2022-10-17T17:03:33;17.80;99.90
30206;DHT22;17010;51.306;3.150;2022-10-17T17:05:59;17.80;99.90